Abertridwr, United Kingdom
Current Conditions -  °F | °C
As of 6:20 AM on Thursday 23 Oct 2014 (Local Time) from EGFF Reporting Station
Moderate Rain Moderate Rain  
Wind Chill: 54°   Ceiling: 700
Heat Index: 54°   Visibility: 4mi
Dew Point: 54°   Wind: 12mph
Humidity: 100%   Direction: 230°SW
Pressure: 30.12"   Gusts: NA
Location:  51.6°N, 3.27°W
Report Text: EGFF 230520Z 23010KT 7000 RA BKN007 OVC021 12/12 Q1020 RERA
Loading
Personal Weather Stations






























Interactive Weather Map
Tropical Storm Tracking
New forecast layout! Learn more

10-Day Weather Forecast

Advertisements
Track Severe Weather on mobile